createdAt,value
2023-03-19T00:04:33.411Z,43.85
2023-03-19T00:09:37.837Z,44.60
2023-03-19T00:14:41.032Z,39.95
2023-03-19T00:19:44.860Z,44.65
2023-03-19T00:24:47.455Z,38.70
2023-03-19T00:29:50.145Z,42.90
2023-03-19T00:34:53.244Z,41.42
2023-03-19T00:39:55.729Z,35.00
2023-03-19T00:44:58.710Z,36.42
2023-03-19T00:50:01.469Z,42.28
2023-03-19T00:55:04.342Z,40.53
2023-03-19T01:00:09.475Z,42.43
2023-03-19T01:05:12.657Z,43.05
2023-03-19T01:10:17.998Z,54.00
2023-03-19T01:20:25.784Z,47.78
2023-03-19T01:25:28.367Z,48.00
2023-03-19T01:30:41.300Z,48.10
2023-03-19T01:35:59.708Z,56.58
2023-03-19T01:41:09.752Z,56.50
2023-03-19T01:46:31.525Z,57.15
2023-03-19T01:57:14.112Z,59.13
2023-03-19T02:02:37.080Z,57.58
2023-03-19T02:07:49.485Z,61.70
2023-03-19T02:12:52.272Z,56.60
2023-03-19T02:17:57.175Z,59.83
2023-03-19T02:23:12.029Z,69.00
2023-03-19T02:28:22.560Z,67.45
2023-03-19T02:33:28.414Z,75.95
2023-03-19T02:38:34.597Z,78.82
2023-03-19T02:43:41.474Z,71.78
2023-03-19T02:48:44.080Z,67.25
2023-03-19T02:53:46.533Z,64.82
2023-03-19T02:58:49.334Z,56.72
2023-03-19T03:03:52.176Z,59.73
2023-03-19T03:08:54.792Z,52.30
2023-03-19T03:13:57.824Z,55.60
2023-03-19T03:19:04.472Z,53.40
2023-03-19T03:24:07.390Z,62.33
2023-03-19T03:29:09.807Z,60.23
2023-03-19T03:34:12.598Z,98.53
2023-03-19T03:39:15.120Z,97.07
2023-03-19T03:44:17.793Z,72.17
2023-03-19T03:49:21.115Z,73.28
2023-03-19T03:54:26.909Z,71.30
2023-03-19T03:59:31.764Z,65.20
2023-03-19T04:04:34.524Z,61.10
2023-03-19T04:09:37.286Z,60.77
2023-03-19T04:14:41.590Z,52.30
2023-03-19T04:19:44.915Z,50.35
2023-03-19T04:24:47.481Z,51.97
2023-03-19T04:29:50.347Z,51.65
2023-03-19T04:39:58.278Z,35.65
2023-03-19T04:50:09.934Z,52.97
2023-03-19T04:55:14.840Z,56.67
2023-03-19T05:00:28.369Z,63.00
2023-03-19T05:05:31.179Z,54.22
2023-03-19T05:10:35.479Z,51.22
2023-03-19T05:15:42.588Z,54.28
2023-03-19T05:20:48.380Z,50.55
2023-03-19T05:26:07.009Z,56.95
2023-03-19T05:31:28.236Z,55.63
2023-03-19T05:36:31.058Z,65.33
2023-03-19T05:41:41.662Z,65.55
2023-03-19T05:46:44.355Z,53.35
2023-03-19T05:51:47.359Z,60.70
2023-03-19T05:56:50.049Z,58.87
2023-03-19T06:02:10.080Z,49.60
2023-03-19T06:07:14.241Z,48.28
2023-03-19T06:12:17.289Z,50.47
2023-03-19T06:17:38.322Z,50.67
2023-03-19T06:22:44.746Z,53.92
2023-03-19T06:27:53.220Z,50.70
2023-03-19T06:33:17.249Z,53.03
2023-03-19T06:38:22.640Z,50.63
2023-03-19T06:43:25.335Z,50.42
2023-03-19T06:48:36.710Z,55.10
2023-03-19T06:53:41.642Z,54.17
2023-03-19T07:03:47.121Z,54.92
2023-03-19T07:08:49.730Z,53.87
2023-03-19T07:13:52.221Z,57.60
2023-03-19T07:18:57.070Z,57.17
2023-03-19T07:24:02.806Z,54.50
2023-03-19T07:29:08.532Z,58.00
2023-03-19T07:34:14.695Z,51.67
2023-03-19T07:39:20.973Z,54.72
2023-03-19T07:44:24.230Z,59.47
2023-03-19T07:49:27.861Z,56.15
2023-03-19T07:54:31.439Z,56.45
2023-03-19T07:59:37.215Z,52.03
2023-03-19T08:04:40.572Z,54.10
2023-03-19T08:09:43.696Z,47.70
2023-03-19T08:14:48.270Z,47.55
2023-03-19T08:19:51.249Z,51.95
2023-03-19T08:24:54.823Z,40.72
2023-03-19T08:29:59.124Z,51.25
2023-03-19T08:35:02.382Z,51.40
2023-03-19T08:40:06.395Z,47.47
2023-03-19T08:45:11.509Z,46.00
2023-03-19T08:50:14.236Z,45.38
2023-03-19T08:55:20.095Z,46.75
2023-03-19T09:00:23.338Z,38.53
2023-03-19T09:10:33.195Z,42.03
2023-03-19T09:15:37.552Z,39.28
2023-03-19T09:20:46.941Z,41.75
2023-03-19T09:25:55.459Z,35.72
2023-03-19T09:31:00.206Z,38.10
2023-03-19T09:36:04.082Z,35.17
2023-03-19T09:41:10.567Z,34.22
2023-03-19T09:46:23.087Z,32.47
2023-03-19T09:51:42.756Z,35.05
2023-03-19T09:56:45.592Z,29.83
2023-03-19T10:01:53.757Z,31.55
2023-03-19T10:07:09.383Z,30.35
2023-03-19T10:12:34.863Z,37.90
2023-03-19T10:17:41.692Z,29.25
2023-03-19T10:23:18.221Z,27.05
2023-03-19T10:28:23.191Z,26.75
2023-03-19T10:33:34.762Z,28.45
2023-03-19T10:38:44.314Z,28.70
2023-03-19T10:43:53.208Z,25.95
2023-03-19T10:49:00.216Z,25.67
2023-03-19T10:54:03.630Z,25.35
2023-03-19T10:59:10.552Z,28.70
2023-03-19T11:04:22.341Z,36.97
2023-03-19T11:14:46.522Z,24.83
2023-03-19T11:19:55.733Z,59.13
2023-03-19T11:25:02.817Z,26.80
2023-03-19T11:30:22.105Z,25.58
2023-03-19T11:35:28.917Z,28.70
2023-03-19T11:40:37.583Z,23.80
2023-03-19T11:45:46.131Z,25.48
2023-03-19T11:51:01.371Z,21.15
2023-03-19T11:56:16.748Z,22.58
2023-03-19T12:01:39.181Z,22.25
2023-03-19T12:06:53.824Z,20.52
2023-03-19T12:12:20.487Z,24.63
2023-03-19T12:17:34.063Z,23.42
2023-03-19T12:23:14.928Z,18.63
2023-03-19T12:28:30.179Z,20.73
2023-03-19T12:33:45.027Z,22.90
2023-03-19T12:38:52.182Z,20.70
2023-03-19T12:44:15.165Z,21.33
2023-03-19T12:49:40.098Z,22.70
2023-03-19T12:54:46.012Z,22.38
2023-03-19T12:59:55.901Z,20.77
2023-03-19T13:05:10.109Z,19.55
2023-03-19T13:10:20.446Z,22.70
2023-03-19T13:15:35.295Z,20.65
2023-03-19T13:21:04.406Z,19.67
2023-03-19T13:26:10.031Z,18.55
2023-03-19T13:31:21.224Z,17.83
2023-03-19T13:36:28.114Z,17.20
2023-03-19T13:41:33.587Z,18.38
2023-03-19T13:46:39.541Z,18.23
2023-03-19T13:51:42.262Z,19.75
2023-03-19T13:57:07.930Z,17.23
2023-03-19T14:02:22.588Z,18.83
2023-03-19T14:07:28.443Z,18.27
2023-03-19T14:12:32.373Z,18.60
2023-03-19T14:17:36.228Z,19.90
2023-03-19T14:22:41.568Z,21.00
2023-03-19T14:27:48.990Z,18.05
2023-03-19T14:32:52.444Z,18.30
2023-03-19T14:37:57.437Z,23.02
2023-03-19T14:43:18.097Z,22.42
2023-03-19T14:48:27.457Z,22.88
2023-03-19T14:53:51.415Z,22.00
2023-03-19T14:58:56.151Z,22.20
2023-03-19T15:04:07.527Z,24.38
2023-03-19T15:09:20.854Z,25.90
2023-03-19T15:19:32.409Z,27.08
2023-03-19T15:24:36.412Z,26.35
2023-03-19T15:29:38.743Z,30.60
2023-03-19T15:34:42.508Z,28.27
2023-03-19T15:39:49.304Z,24.92
2023-03-19T15:45:07.657Z,28.02
2023-03-19T15:50:18.389Z,28.30
2023-03-19T15:55:21.513Z,28.23
2023-03-19T16:00:24.734Z,27.55
2023-03-19T16:05:33.800Z,29.08
2023-03-19T16:10:39.169Z,32.47
2023-03-19T16:15:45.933Z,30.52
2023-03-19T16:21:02.286Z,32.13
2023-03-19T16:26:15.020Z,29.73
2023-03-19T16:31:24.157Z,30.67
2023-03-19T16:36:31.962Z,34.95
2023-03-19T16:41:36.197Z,34.67
2023-03-19T16:46:38.647Z,34.50
2023-03-19T16:51:41.032Z,34.90
2023-03-19T16:56:43.548Z,36.22
2023-03-19T17:01:45.945Z,38.50
2023-03-19T17:06:50.905Z,40.88
2023-03-19T17:11:56.530Z,41.47
2023-03-19T17:16:59.330Z,39.17
2023-03-19T17:22:02.433Z,39.00
2023-03-19T17:32:16.875Z,40.03
2023-03-19T17:37:21.025Z,39.35
2023-03-19T17:42:25.251Z,39.75
2023-03-19T17:47:27.649Z,39.50
2023-03-19T17:52:30.632Z,39.60
2023-03-19T17:57:39.434Z,72.07
2023-03-19T18:02:41.914Z,141.90
2023-03-19T18:07:49.068Z,113.13
2023-03-19T18:12:52.331Z,98.10
2023-03-19T18:22:59.103Z,84.43
2023-03-19T18:28:04.734Z,115.85
2023-03-19T18:33:13.064Z,136.80
2023-03-19T18:38:21.700Z,113.07
2023-03-19T18:43:24.649Z,110.40
2023-03-19T18:48:29.113Z,110.75
2023-03-19T18:53:32.585Z,108.90
2023-03-19T18:58:35.307Z,101.47
2023-03-19T19:03:38.455Z,85.20
2023-03-19T19:08:44.316Z,74.38
2023-03-19T19:14:06.403Z,66.85
2023-03-19T19:19:22.808Z,67.18
2023-03-19T19:24:26.350Z,72.43
2023-03-19T19:34:32.117Z,81.80
2023-03-19T19:39:34.592Z,92.25
2023-03-19T19:44:37.405Z,80.37
2023-03-19T19:49:39.820Z,83.50
2023-03-19T19:54:42.272Z,78.90
2023-03-19T19:59:47.832Z,76.60
2023-03-19T20:04:50.602Z,74.53
2023-03-19T20:09:53.415Z,78.05
2023-03-19T20:14:56.079Z,82.67
2023-03-19T20:19:58.387Z,96.00
2023-03-19T20:25:01.147Z,133.02
2023-03-19T20:30:05.634Z,159.57
2023-03-19T20:35:17.098Z,173.40
2023-03-19T20:40:21.580Z,167.32
2023-03-19T20:45:33.684Z,134.38
2023-03-19T20:50:37.272Z,93.05
2023-03-19T20:55:43.231Z,42.65
2023-03-19T21:00:46.197Z,28.58
2023-03-19T21:05:52.719Z,52.22
2023-03-19T21:10:55.416Z,49.33
2023-03-19T21:15:58.488Z,53.30
2023-03-19T21:21:01.375Z,99.28
2023-03-19T21:26:15.335Z,78.33
2023-03-19T21:31:22.470Z,116.07
2023-03-19T21:36:30.553Z,96.60
2023-03-19T21:41:36.158Z,78.63
2023-03-19T21:46:40.690Z,96.03
2023-03-19T21:51:47.705Z,101.82
2023-03-19T21:56:50.489Z,94.78
2023-03-19T22:01:56.495Z,99.00
2023-03-19T22:06:59.270Z,61.53
2023-03-19T22:12:01.708Z,47.17
2023-03-19T22:17:05.839Z,41.03
2023-03-19T22:22:09.439Z,45.53
2023-03-19T22:27:18.498Z,51.22
2023-03-19T22:32:21.133Z,56.28
2023-03-19T22:37:31.372Z,60.23
2023-03-19T22:42:34.061Z,56.53
2023-03-19T22:47:38.659Z,115.07
2023-03-19T22:52:41.261Z,129.45
2023-03-19T22:57:44.154Z,111.57
2023-03-19T23:02:57.864Z,87.40
2023-03-19T23:08:17.607Z,76.53
2023-03-19T23:13:22.353Z,99.43
2023-03-19T23:18:35.678Z,83.78
2023-03-19T23:23:39.124Z,88.40
2023-03-19T23:28:41.655Z,68.35
2023-03-19T23:33:46.429Z,68.20
2023-03-19T23:38:48.721Z,69.22
2023-03-19T23:43:55.062Z,65.60
2023-03-19T23:49:00.272Z,63.50
2023-03-19T23:54:02.797Z,64.43
2023-03-19T23:59:05.922Z,66.53
